Time;durP1;ratioP1;P1;durP2;ratioP2;P2;SDS_P1;SDS_P2;PMS_P1;PMS_P2;Temp;Humidity;BMP_temperature;BMP_pressure;BME280_temperature;BME280_humidity;BME280_pressure;Samples;Min_cycle;Max_cycle;Signal;HPM_P1;HPM_P2
2022/11/12 00:00:22;;;;;;;;;10.50;10.50;;;;;21.01;44.73;102423.09;5059657;28;45374;-58
2022/11/12 00:02:47;;;;;;;;;10.50;9.00;;;;;21.00;44.91;102416.09;5064482;28;45225;-57
2022/11/12 00:05:13;;;;;;;;;11.25;9.25;;;;;21.01;44.87;102428.38;5073454;28;45366;-58
2022/11/12 00:07:38;;;;;;;;;9.75;9.00;;;;;21.00;44.77;102421.38;5072952;28;45384;-57
2022/11/12 00:10:04;;;;;;;;;11.50;10.25;;;;;21.01;44.62;102422.25;5067802;28;45303;-58
2022/11/12 00:12:29;;;;;;;;;11.00;9.50;;;;;20.99;44.91;102427.59;5062073;28;45524;-58
2022/11/12 00:14:54;;;;;;;;;10.50;8.75;;;;;20.97;44.56;102416.22;5061160;28;58243;-56
2022/11/12 00:17:20;;;;;;;;;12.50;10.00;;;;;20.98;44.80;102428.50;5077086;28;45396;-58
2022/11/12 00:19:45;;;;;;;;;13.25;10.25;;;;;20.97;45.04;102426.78;5078141;28;44741;-58
2022/11/12 00:22:10;;;;;;;;;12.25;10.75;;;;;20.97;44.67;102425.88;5058286;28;46815;-58
2022/11/12 00:24:36;;;;;;;;;13.00;10.00;;;;;20.95;44.94;102428.59;5057962;28;57650;-58
2022/11/12 00:27:01;;;;;;;;;13.00;12.00;;;;;20.95;44.66;102428.59;5064159;28;45358;-58
2022/11/12 00:29:26;;;;;;;;;11.00;10.50;;;;;20.95;44.86;102433.84;5064182;28;45306;-58
2022/11/12 00:31:52;;;;;;;;;9.50;8.75;;;;;20.95;45.00;102439.13;5058717;28;46004;-58
2022/11/12 00:34:17;;;;;;;;;11.50;11.25;;;;;20.95;45.10;102433.84;5059577;28;45450;-58
2022/11/12 00:36:42;;;;;;;;;11.50;10.00;;;;;20.96;44.99;102425.03;5057571;28;45329;-57
2022/11/12 00:39:07;;;;;;;;;9.50;9.50;;;;;20.94;44.88;102428.66;5056884;28;52796;-57
2022/11/12 00:41:33;;;;;;;;;9.67;9.67;;;;;20.92;44.69;102422.56;5056608;28;63857;-58
2022/11/12 00:43:58;;;;;;;;;12.50;9.75;;;;;20.93;44.81;102427.78;5061040;28;48658;-58
2022/11/12 00:46:23;;;;;;;;;10.50;9.50;;;;;20.93;44.71;102425.13;5068771;28;45527;-58
2022/11/12 00:48:49;;;;;;;;;9.50;9.50;;;;;20.93;45.17;102419.84;5057643;28;45537;-57
2022/11/12 00:51:14;;;;;;;;;9.25;8.25;;;;;20.93;44.97;102424.28;5058841;28;50338;-57
2022/11/12 00:53:39;;;;;;;;;9.25;9.25;;;;;20.92;44.79;102418.13;5058957;28;45651;-58
2022/11/12 00:56:05;;;;;;;;;12.67;9.00;;;;;20.92;44.88;102418.13;5057386;28;60703;-57
2022/11/12 00:58:32;;;;;;;;;10.25;10.25;;;;;20.92;44.93;102417.28;5056816;28;45284;-57
2022/11/12 01:01:05;;;;;;;;;11.00;10.75;;;;;20.90;44.98;102419.94;5057036;28;46457;-57
2022/11/12 01:03:30;;;;;;;;;9.75;9.00;;;;;20.89;44.94;102418.22;5063706;28;45718;-58
2022/11/12 01:06:01;;;;;;;;;9.25;8.25;;;;;20.85;44.67;102416.63;5078446;28;45153;-57
2022/11/12 01:08:28;;;;;;;;;9.25;9.00;;;;;20.87;45.01;102416.56;5067450;28;45328;-57
2022/11/12 01:10:53;;;;;;;;;10.75;9.00;;;;;20.88;44.77;102423.56;5081523;28;45351;-58
2022/11/12 01:13:19;;;;;;;;;9.25;9.25;;;;;20.87;45.01;102414.81;5065292;28;44682;-57
2022/11/12 01:15:44;;;;;;;;;9.25;9.25;;;;;20.86;44.71;102415.72;5073490;28;45553;-57
2022/11/12 01:18:09;;;;;;;;;11.00;9.25;;;;;20.86;44.79;102413.06;5058678;28;45603;-57
2022/11/12 01:20:36;;;;;;;;;10.33;8.67;;;;;20.84;45.06;102410.47;5056636;28;64270;-57
2022/11/12 01:23:02;;;;;;;;;11.50;9.50;;;;;20.84;44.75;102406.97;5078590;28;45104;-57
2022/11/12 01:25:27;;;;;;;;;9.75;9.00;;;;;20.83;44.90;102413.16;5063446;28;45369;-58
2022/11/12 01:27:52;;;;;;;;;9.00;9.00;;;;;20.82;44.87;102404.41;5056588;28;56279;-57
2022/11/12 01:30:18;;;;;;;;;9.50;9.50;;;;;20.82;45.09;102401.78;5056675;28;46237;-57
2022/11/12 01:32:43;;;;;;;;;8.00;8.00;;;;;20.80;44.98;102393.03;5056445;28;57433;-57
2022/11/12 01:35:08;;;;;;;;;11.00;9.00;;;;;20.80;44.86;102387.78;5056395;28;57753;-57
2022/11/12 01:37:33;;;;;;;;;8.50;6.50;;;;;20.81;44.77;102399.16;5057315;28;45378;-56
2022/11/12 01:39:59;;;;;;;;;9.25;9.25;;;;;20.80;44.70;102392.16;5056904;28;46775;-57
2022/11/12 01:42:28;;;;;;;;;10.50;8.75;;;;;20.79;44.77;102395.72;5056886;28;45247;-58
2022/11/12 01:44:53;;;;;;;;;9.00;8.00;;;;;20.79;45.00;102398.34;5056868;28;45339;-58
2022/11/12 01:47:24;;;;;;;;;9.00;9.00;;;;;20.78;45.13;102391.38;5056472;28;45277;-58
2022/11/12 01:50:18;;;;;;;;;10.50;10.50;;;;;20.76;44.71;102388.78;5056326;28;46055;-58
2022/11/12 01:52:51;;;;;;;;;8.50;8.25;;;;;20.76;44.83;102380.88;5049069;28;45387;-58
2022/11/12 01:55:21;;;;;;;;;9.50;8.75;;;;;20.77;44.86;102381.75;5056972;28;45454;-58
2022/11/12 01:58:03;;;;;;;;;7.50;7.50;;;;;20.76;45.02;102374.75;5068086;28;45286;-58
2022/11/12 02:00:29;;;;;;;;;11.75;9.50;;;;;20.74;44.98;102371.25;5073515;28;46801;-58
2022/11/12 02:02:58;;;;;;;;;9.00;8.00;;;;;20.75;45.05;102378.28;5056858;28;45376;-58
2022/11/12 02:05:25;;;;;;;;;9.00;9.00;;;;;20.74;44.98;102380.03;5067688;28;45397;-58
2022/11/12 02:07:52;;;;;;;;;9.00;7.50;;;;;20.73;44.92;102374.81;5058921;28;45534;-58
2022/11/12 02:10:18;;;;;;;;;10.25;8.75;;;;;20.73;45.03;102369.53;5076103;28;48822;-57
2022/11/12 02:15:28;;;;;;;;;10.00;9.00;;;;;20.73;45.03;102377.44;5065629;28;44883;-58
2022/11/12 02:17:53;;;;;;;;;9.75;9.75;;;;;20.72;45.03;102391.53;5056655;28;49061;-58
2022/11/12 02:20:19;;;;;;;;;10.67;8.00;;;;;20.70;45.07;102392.44;5055349;28;64659;-58
2022/11/12 02:22:44;;;;;;;;;11.00;9.00;;;;;20.72;44.83;102396.78;5059461;28;45312;-58
2022/11/12 02:25:17;;;;;;;;;9.25;8.75;;;;;20.71;44.74;102398.59;5059602;28;45334;-58
2022/11/12 02:27:43;;;;;;;;;11.25;8.50;;;;;20.68;44.91;102388.97;5059801;28;45423;-58
2022/11/12 02:30:09;;;;;;;;;9.00;8.00;;;;;20.68;45.00;102388.97;5059402;28;46054;-58
2022/11/12 02:32:35;;;;;;;;;11.25;8.25;;;;;20.68;44.71;102386.34;5059535;28;45280;-57
2022/11/12 02:35:00;;;;;;;;;9.00;9.00;;;;;20.67;45.05;102379.34;5059161;28;53618;-58
2022/11/12 02:37:25;;;;;;;;;8.25;8.25;;;;;20.68;44.71;102374.94;5059732;28;45440;-58
2022/11/12 02:39:50;;;;;;;;;8.50;7.50;;;;;20.67;45.16;102360.91;5058583;28;67707;-58
2022/11/12 02:42:16;;;;;;;;;9.67;8.33;;;;;20.67;44.84;102365.31;5058417;28;67013;-57
2022/11/12 02:44:41;;;;;;;;;7.33;7.33;;;;;20.65;44.90;102372.41;5059445;28;54978;-58
2022/11/12 02:47:06;;;;;;;;;9.75;9.25;;;;;20.66;44.80;102368.88;5061585;28;45518;-59
2022/11/12 02:49:32;;;;;;;;;9.25;8.00;;;;;20.65;45.18;102375.03;5059392;28;53232;-58
2022/11/12 02:51:57;;;;;;;;;8.75;8.75;;;;;20.66;45.03;102363.59;5070481;28;50420;-58
2022/11/12 02:54:22;;;;;;;;;9.00;7.00;;;;;20.65;44.80;102361.88;5069269;28;45322;-57
2022/11/12 02:56:47;;;;;;;;;8.00;8.00;;;;;20.61;45.09;102353.22;5083648;28;46391;-62
2022/11/12 02:59:13;;;;;;;;;7.50;7.50;;;;;20.62;45.05;102354.94;5074088;28;54260;-58
2022/11/12 03:01:38;;;;;;;;;9.75;8.25;;;;;20.63;44.99;102364.56;5066890;28;45425;-58
2022/11/12 03:04:03;;;;;;;;;10.25;7.50;;;;;20.63;44.78;102367.19;5057777;28;53426;-58
2022/11/12 03:06:29;;;;;;;;;7.33;7.00;;;;;20.63;45.25;102359.28;5058438;28;45920;-58
2022/11/12 03:08:54;;;;;;;;;8.25;6.75;;;;;20.62;44.68;102362.84;5057403;28;51520;-57
2022/11/12 03:11:19;;;;;;;;;8.75;8.75;;;;;20.62;45.25;102364.59;5057415;28;45476;-58
2022/11/12 03:13:44;;;;;;;;;7.75;7.25;;;;;20.61;45.38;102349.72;5057917;28;45355;-58
2022/11/12 03:16:10;;;;;;;;;8.50;8.50;;;;;20.60;44.92;102354.13;5058111;28;45592;-58
2022/11/12 03:18:36;;;;;;;;;8.25;8.25;;;;;20.61;44.76;102349.72;5057710;28;47087;-58
2022/11/12 03:21:02;;;;;;;;;9.00;9.00;;;;;20.59;45.21;102347.13;5057805;28;45507;-57
2022/11/12 03:23:27;;;;;;;;;8.00;8.00;;;;;20.59;45.10;102344.50;5067761;28;45469;-57
2022/11/12 03:25:53;;;;;;;;;11.00;9.50;;;;;20.59;44.84;102341.84;5070798;28;45295;-57
2022/11/12 03:28:18;;;;;;;;;8.50;8.00;;;;;20.60;45.00;102338.31;5057500;28;46141;-57
2022/11/12 03:30:44;;;;;;;;;8.25;8.25;;;;;20.61;45.30;102342.66;5057513;28;45416;-56
2022/11/12 03:33:11;;;;;;;;;7.50;7.50;;;;;20.60;45.17;102338.31;5057189;28;45322;-57
2022/11/12 03:35:38;;;;;;;;;10.00;8.00;;;;;20.58;45.00;102334.84;5057828;28;45515;-57
2022/11/12 03:38:04;;;;;;;;;12.50;9.25;;;;;20.60;44.94;102338.31;5057465;28;45975;-57
2022/11/12 03:40:30;;;;;;;;;8.25;7.75;;;;;20.59;45.29;102338.38;5057946;28;45866;-57
2022/11/12 03:42:56;;;;;;;;;10.00;9.00;;;;;20.59;45.15;102341.84;5020558;28;1090119;-57
2022/11/12 03:45:24;;;;;;;;;7.75;6.50;;;;;20.59;44.90;102339.22;5061831;28;45401;-57
2022/11/12 03:47:52;;;;;;;;;7.25;7.25;;;;;20.59;45.24;102339.22;5062156;28;46129;-56
2022/11/12 03:50:19;;;;;;;;;9.25;7.75;;;;;20.57;45.34;102337.56;5061544;28;45420;-59
2022/11/12 03:52:46;;;;;;;;;8.25;8.00;;;;;20.55;45.19;102340.25;5058286;28;45224;-58
2022/11/12 03:55:14;;;;;;;;;9.50;8.75;;;;;20.57;45.11;102346.31;5058448;28;45219;-57
2022/11/12 03:57:39;;;;;;;;;8.50;7.50;;;;;20.55;45.21;102349.00;5058205;28;46228;-56
2022/11/12 04:00:06;;;;;;;;;9.00;8.00;;;;;20.57;45.36;102362.09;5059087;28;45388;-57
2022/11/12 04:02:32;;;;;;;;;6.50;6.50;;;;;20.53;45.18;102357.88;5067600;28;45256;-56
2022/11/12 04:10:24;;;;;;;;;9.75;7.50;;;;;20.54;45.08;102360.44;5058187;28;45485;-57
2022/11/12 04:15:34;;;;;;;;;7.25;6.25;;;;;20.53;44.83;102366.63;5058580;28;45428;-57
2022/11/12 04:23:27;;;;;;;;;7.00;7.00;;;;;20.53;44.86;102376.31;5057914;28;45358;-58
2022/11/12 04:28:36;;;;;;;;;8.00;7.00;;;;;20.50;45.49;102355.31;5057929;28;45238;-57
2022/11/12 04:31:01;;;;;;;;;8.67;8.67;;;;;20.51;45.13;102359.69;5057390;28;57369;-57
2022/11/12 04:33:27;;;;;;;;;7.50;7.50;;;;;20.51;45.19;102357.88;5057773;28;45761;-57
2022/11/12 04:35:52;;;;;;;;;7.00;7.00;;;;;20.50;45.30;102361.47;5057533;28;45589;-58
2022/11/12 04:38:17;;;;;;;;;8.00;8.00;;;;;20.48;45.27;102355.38;5057482;28;46094;-57
2022/11/12 04:46:11;;;;;;;;;8.50;8.00;;;;;20.49;44.95;102354.47;5081810;28;44626;-57
2022/11/12 04:48:36;;;;;;;;;8.00;8.00;;;;;20.49;45.15;102358.84;5060753;28;46040;-57
2022/11/12 04:52:03;;;;;;;;;7.50;7.50;;;;;20.47;45.22;102353.66;5057440;28;45231;-56
2022/11/12 04:53:49;;;;;;;;;0.00;0.00;;;;;20.48;45.06;102355.38;5057240;28;45259;-57
2022/11/12 04:56:14;;;;;;;;;10.25;8.75;;;;;20.47;44.88;102355.41;5057587;28;45378;-56
2022/11/12 04:58:39;;;;;;;;;8.75;8.75;;;;;20.48;45.14;102365.03;5057067;28;45425;-57
2022/11/12 05:01:04;;;;;;;;;7.25;7.25;;;;;20.47;45.30;102360.66;5055508;28;55697;-56
2022/11/12 05:03:30;;;;;;;;;8.50;7.00;;;;;20.45;44.95;102360.72;5057163;28;45362;-56
2022/11/12 05:06:03;;;;;;;;;8.33;8.33;;;;;20.45;45.03;102355.47;5056645;28;54004;-57
2022/11/12 05:08:28;;;;;;;;;8.25;6.50;;;;;20.45;44.91;102349.34;5057126;28;46208;-57
2022/11/12 05:10:53;;;;;;;;;9.00;7.00;;;;;20.45;45.06;102354.63;5055722;28;45200;-56
2022/11/12 05:13:19;;;;;;;;;7.00;7.00;;;;;20.44;45.30;102358.16;5056450;28;58931;-57
2022/11/12 05:15:44;;;;;;;;;8.00;8.00;;;;;20.43;45.07;102359.06;5057183;28;45465;-57
2022/11/12 05:18:09;;;;;;;;;8.00;6.67;;;;;20.44;45.10;102363.41;5056425;28;55997;-57
2022/11/12 05:20:35;;;;;;;;;8.00;8.00;;;;;20.43;45.07;102359.06;5057049;28;51938;-57
2022/11/12 05:23:00;;;;;;;;;5.75;5.75;;;;;20.43;45.28;102361.69;5056987;28;45295;-57
2022/11/12 05:25:25;;;;;;;;;8.75;8.75;;;;;20.43;45.10;102361.69;5057119;28;45299;-57
2022/11/12 05:27:51;;;;;;;;;9.50;8.25;;;;;20.41;44.81;102364.34;5057075;28;47077;-57
2022/11/12 05:30:16;;;;;;;;;8.00;7.25;;;;;20.39;45.34;102356.50;5057031;28;45442;-57
2022/11/12 05:32:41;;;;;;;;;8.75;7.00;;;;;20.41;44.95;102352.97;5056855;28;45315;-56
2022/11/12 05:35:07;;;;;;;;;9.33;8.67;;;;;20.40;45.13;102349.47;5056863;28;52143;-57
2022/11/12 05:37:32;;;;;;;;;9.75;8.00;;;;;20.39;45.20;102356.50;5068158;28;47507;-56
2022/11/12 05:39:57;;;;;;;;;9.75;7.75;;;;;20.39;45.03;102353.88;5074329;28;45224;-56
2022/11/12 05:42:23;;;;;;;;;7.50;7.50;;;;;20.39;45.26;102356.50;5056797;28;45434;-56
2022/11/12 05:44:48;;;;;;;;;7.75;7.00;;;;;20.38;45.02;102352.16;5055573;28;45439;-56
2022/11/12 05:47:13;;;;;;;;;7.00;7.00;;;;;20.38;44.72;102343.41;5056167;28;62771;-56
2022/11/12 05:49:39;;;;;;;;;8.00;8.00;;;;;20.38;44.84;102338.13;5057310;28;45321;-56
2022/11/12 05:52:04;;;;;;;;;8.00;8.00;;;;;20.36;44.69;102338.16;5075904;28;65285;-56
2022/11/12 05:54:29;;;;;;;;;8.75;8.00;;;;;20.37;44.97;102342.53;5078936;28;44838;-56
2022/11/12 05:56:54;;;;;;;;;9.00;9.00;;;;;20.36;45.27;102351.31;5060698;28;63561;-55
2022/11/12 05:59:21;;;;;;;;;9.00;9.00;;;;;20.35;45.19;102357.50;5078581;28;66251;-56
2022/11/12 06:01:46;;;;;;;;;12.25;10.25;;;;;20.37;44.69;102368.00;5073470;28;45836;-59
2022/11/12 06:04:13;;;;;;;;;7.75;7.75;;;;;20.36;45.11;102361.88;5078200;28;45547;-56
2022/11/12 06:06:40;;;;;;;;;12.00;8.00;;;;;20.34;45.28;102361.03;5056670;28;46208;-56
2022/11/12 06:09:06;;;;;;;;;7.00;6.25;;;;;20.32;44.83;102362.88;5056122;28;45319;-57
2022/11/12 06:11:32;;;;;;;;;8.25;7.25;;;;;20.33;44.82;102361.97;5056208;28;45521;-56
2022/11/12 06:13:58;;;;;;;;;9.50;7.25;;;;;20.35;45.28;102367.19;5056381;28;45578;-56
2022/11/12 06:16:24;;;;;;;;;9.25;9.25;;;;;20.33;44.92;102364.63;5055806;28;46103;-55
2022/11/12 06:18:49;;;;;;;;;7.50;7.50;;;;;20.31;45.01;102357.63;5055884;28;45375;-57
2022/11/12 06:21:23;;;;;;;;;7.00;7.00;;;;;20.32;45.14;102352.34;5056012;28;45311;-57
2022/11/12 06:23:52;;;;;;;;;7.00;7.00;;;;;20.33;44.70;102361.09;5056534;28;45433;-57
2022/11/12 06:26:18;;;;;;;;;8.25;6.75;;;;;20.32;44.80;102360.25;5056118;28;46152;-57
2022/11/12 06:28:44;;;;;;;;;9.75;8.00;;;;;20.31;45.18;102363.78;5055783;28;45727;-56
2022/11/12 06:31:10;;;;;;;;;5.00;5.00;;;;;20.32;45.32;102359.38;5056363;28;45437;-58
2022/11/12 06:33:35;;;;;;;;;7.75;7.75;;;;;20.32;45.16;102362.88;5056209;28;45449;-58
2022/11/12 06:36:04;;;;;;;;;7.50;7.50;;;;;20.31;45.23;102366.41;5055717;28;46139;-60
2022/11/12 06:38:30;;;;;;;;;8.00;8.00;;;;;20.31;45.40;102369.06;5055934;28;45790;-57
2022/11/12 06:40:56;;;;;;;;;14.00;9.75;;;;;20.31;45.21;102366.41;5056098;28;45255;-57
2022/11/12 06:43:22;;;;;;;;;9.75;9.00;;;;;20.28;45.21;102366.50;5058971;28;45540;-57
2022/11/12 06:45:47;;;;;;;;;9.00;9.00;;;;;20.30;45.45;102367.31;5056193;28;47263;-56
2022/11/12 06:48:12;;;;;;;;;9.00;9.00;;;;;20.32;45.52;102370.78;5057835;28;45276;-57
2022/11/12 06:50:38;;;;;;;;;10.00;8.75;;;;;20.34;45.97;102373.34;5057684;28;45211;-58
2022/11/12 06:53:03;;;;;;;;;7.75;6.75;;;;;20.38;45.74;102370.59;5061947;28;45666;-59
2022/11/12 06:55:28;;;;;;;;;9.00;8.00;;;;;20.41;46.01;102366.13;5071852;28;57289;-57
2022/11/12 06:57:54;;;;;;;;;8.50;8.50;;;;;20.39;45.70;102374.94;5078787;28;44729;-58
2022/11/12 07:00:19;;;;;;;;;9.50;9.50;;;;;20.44;46.33;102373.94;5078294;28;45363;-58
2022/11/12 07:02:45;;;;;;;;;8.75;7.00;;;;;20.46;46.39;102377.38;5063899;28;45283;-58
2022/11/12 07:05:10;;;;;;;;;10.00;8.00;;;;;20.46;46.51;102377.38;5057851;28;47079;-59
2022/11/12 07:07:35;;;;;;;;;9.25;9.00;;;;;20.47;46.44;102384.38;5062026;28;52042;-59
2022/11/12 07:10:01;;;;;;;;;12.75;9.50;;;;;20.45;46.08;102378.31;5074748;28;45350;-58
2022/11/12 07:12:26;;;;;;;;;7.50;7.50;;;;;20.44;46.30;102377.44;5070898;28;45326;-58
2022/11/12 07:14:53;;;;;;;;;10.00;7.00;;;;;20.44;46.45;102382.69;5058535;28;47065;-57
2022/11/12 07:17:18;;;;;;;;;8.00;8.00;;;;;20.44;46.44;102384.50;5066759;28;45457;-57
2022/11/12 07:19:43;;;;;;;;;11.75;8.50;;;;;20.44;46.41;102379.22;5074694;28;57633;-57
2022/11/12 07:22:08;;;;;;;;;10.00;8.00;;;;;20.42;46.62;102378.41;5069567;28;56648;-57
2022/11/12 07:24:34;;;;;;;;;8.00;7.00;;;;;20.42;46.70;102379.25;5070514;28;53087;-57
2022/11/12 07:26:59;;;;;;;;;10.00;8.25;;;;;20.42;47.10;102381.03;5064240;28;45329;-58
2022/11/12 07:29:24;;;;;;;;;9.00;8.00;;;;;20.41;46.79;102390.69;5064066;28;64705;-58
2022/11/12 07:31:50;;;;;;;;;10.00;8.00;;;;;20.42;47.04;102396.84;5061407;28;45272;-57
2022/11/12 07:34:15;;;;;;;;;9.00;9.00;;;;;20.41;47.03;102400.38;5059143;28;46306;-58
2022/11/12 07:36:41;;;;;;;;;8.00;7.33;;;;;20.41;46.84;102403.00;5058183;28;63464;-58
2022/11/12 07:39:06;;;;;;;;;8.33;7.67;;;;;20.41;46.86;102395.94;5058978;28;59297;-57
2022/11/12 07:41:31;;;;;;;;;9.50;9.50;;;;;20.44;47.09;102400.28;5063365;28;45438;-58
2022/11/12 07:43:57;;;;;;;;;8.00;8.00;;;;;20.46;47.06;102403.72;5079393;28;46060;-59
2022/11/12 07:46:25;;;;;;;;;8.75;7.75;;;;;20.48;47.05;102407.16;5065589;28;45199;-54
2022/11/12 07:48:50;;;;;;;;;9.00;7.00;;;;;20.47;46.96;102400.19;5058955;28;45394;-56
2022/11/12 07:51:25;;;;;;;;;9.00;9.00;;;;;20.47;46.85;102402.81;5059535;28;45340;-56
2022/11/12 07:53:53;;;;;;;;;11.25;10.00;;;;;20.45;47.02;102396.75;5071405;28;45372;-56
2022/11/12 07:56:20;;;;;;;;;12.25;8.00;;;;;20.44;46.99;102402.91;5064879;28;45783;-57
2022/11/12 07:58:47;;;;;;;;;10.00;9.50;;;;;20.43;47.17;102407.31;5060985;28;45288;-56
2022/11/12 08:01:33;;;;;;;;;10.00;9.50;;;;;20.41;46.88;102409.13;5065221;28;45577;-56
2022/11/12 08:04:00;;;;;;;;;9.75;8.50;;;;;20.41;46.92;102418.81;5064071;28;45861;-56
2022/11/12 08:06:26;;;;;;;;;9.00;8.00;;;;;20.41;47.00;102416.19;5059501;28;46012;-54
2022/11/12 08:08:56;;;;;;;;;11.00;7.00;;;;;20.41;46.86;102427.56;5057175;28;45319;-54
2022/11/12 08:11:22;;;;;;;;;12.25;8.75;;;;;20.41;46.81;102426.72;5058093;28;45453;-54
2022/11/12 08:13:48;;;;;;;;;9.00;9.00;;;;;20.37;47.06;102421.53;5056646;28;46385;-55
2022/11/12 08:16:14;;;;;;;;;10.00;8.00;;;;;20.40;46.92;102431.09;5057513;28;45430;-55
2022/11/12 08:18:39;;;;;;;;;8.00;8.00;;;;;20.40;47.17;102431.09;5056557;28;45249;-55
2022/11/12 08:21:07;;;;;;;;;8.50;7.25;;;;;20.41;46.91;102429.34;5057611;28;45576;-53
2022/11/12 08:23:32;;;;;;;;;11.00;9.00;;;;;20.39;47.03;102432.88;5057773;28;46943;-53
2022/11/12 08:26:02;;;;;;;;;13.50;10.00;;;;;20.40;47.02;102439.00;5056485;28;45375;-54
2022/11/12 08:28:29;;;;;;;;;9.00;7.25;;;;;20.38;46.93;102428.53;5057764;28;45288;-56
2022/11/12 08:30:55;;;;;;;;;9.75;8.00;;;;;20.41;47.22;102437.25;5056200;28;45477;-54
2022/11/12 08:33:21;;;;;;;;;6.75;6.00;;;;;20.40;46.98;102436.34;5056773;28;47130;-56
